createdAt,value
2022-11-25T00:01:05.264Z,226.83
2022-11-25T00:03:32.443Z,210.90
2022-11-25T00:06:08.351Z,206.70
2022-11-25T00:08:35.441Z,217.13
2022-11-25T00:11:02.996Z,190.33
2022-11-25T00:13:30.149Z,164.83
2022-11-25T00:15:57.233Z,97.33
2022-11-25T00:18:24.331Z,74.33
2022-11-25T00:20:51.449Z,104.53
2022-11-25T00:23:18.533Z,93.67
2022-11-25T00:25:45.617Z,94.47
2022-11-25T00:28:12.758Z,99.43
2022-11-25T00:30:39.879Z,106.60
2022-11-25T00:33:06.988Z,106.43
2022-11-25T00:35:35.536Z,97.77
2022-11-25T00:38:02.627Z,116.27
2022-11-25T00:40:29.722Z,116.50
2022-11-25T00:43:15.695Z,117.83
2022-11-25T00:45:42.915Z,112.03
2022-11-25T00:48:10.032Z,105.77
2022-11-25T00:50:37.153Z,83.90
2022-11-25T00:53:04.279Z,72.67
2022-11-25T00:55:51.368Z,66.40
2022-11-25T00:58:18.500Z,70.23
2022-11-25T01:00:45.697Z,56.93
2022-11-25T01:03:12.858Z,55.00
2022-11-25T01:05:39.952Z,41.97
2022-11-25T01:08:07.078Z,37.80
2022-11-25T01:10:34.321Z,48.90
2022-11-25T01:13:01.439Z,104.87
2022-11-25T01:15:28.563Z,63.07
2022-11-25T01:17:55.685Z,61.97
2022-11-25T01:20:22.839Z,89.87
2022-11-25T01:22:50.250Z,99.47
2022-11-25T01:25:17.375Z,83.83
2022-11-25T01:27:44.476Z,80.90
2022-11-25T01:30:11.736Z,56.60
2022-11-25T01:32:38.870Z,40.73
2022-11-25T01:35:06.301Z,26.80
2022-11-25T01:37:33.446Z,24.13
2022-11-25T01:40:00.561Z,36.80
2022-11-25T01:42:29.510Z,61.33
2022-11-25T01:45:15.524Z,75.63
2022-11-25T01:47:42.627Z,78.27
2022-11-25T01:50:11.006Z,98.17
2022-11-25T01:52:39.235Z,93.07
2022-11-25T01:55:08.144Z,90.30
2022-11-25T01:57:39.548Z,99.17
2022-11-25T02:00:07.771Z,94.37
2022-11-25T02:02:34.913Z,97.23
2022-11-25T02:05:07.681Z,95.00
2022-11-25T02:07:36.363Z,76.90
2022-11-25T02:10:04.001Z,68.13
2022-11-25T02:12:31.211Z,58.87
2022-11-25T02:14:58.637Z,49.73
2022-11-25T02:17:25.742Z,48.13
2022-11-25T02:20:06.305Z,40.93
2022-11-25T02:22:33.406Z,40.67
2022-11-25T02:25:03.487Z,47.77
2022-11-25T02:27:30.625Z,51.37
2022-11-25T02:29:57.747Z,75.33
2022-11-25T02:32:24.878Z,66.93
2022-11-25T02:34:52.032Z,76.87
2022-11-25T02:37:19.880Z,71.43
2022-11-25T02:39:46.989Z,65.43
2022-11-25T02:42:14.128Z,71.80
2022-11-25T02:44:41.238Z,74.93
2022-11-25T02:47:08.320Z,69.60
2022-11-25T02:49:35.444Z,69.13
2022-11-25T02:52:02.556Z,75.07
2022-11-25T02:54:29.664Z,92.30
2022-11-25T02:56:56.835Z,111.10
2022-11-25T02:59:23.926Z,103.23
2022-11-25T03:01:51.112Z,104.60
2022-11-25T03:04:18.325Z,104.83
2022-11-25T03:06:45.470Z,114.37
2022-11-25T03:09:12.560Z,108.33
2022-11-25T03:11:58.450Z,112.60
2022-11-25T03:14:25.554Z,106.53
2022-11-25T03:16:52.747Z,108.07
2022-11-25T03:19:19.958Z,118.13
2022-11-25T03:21:47.055Z,105.93
2022-11-25T03:24:14.145Z,107.07
2022-11-25T03:26:41.274Z,103.17
2022-11-25T03:29:08.407Z,98.97
2022-11-25T03:31:35.557Z,97.47
2022-11-25T03:34:02.714Z,95.23
2022-11-25T03:36:29.836Z,96.53
2022-11-25T03:38:56.955Z,103.37
2022-11-25T03:41:24.107Z,97.57
2022-11-25T03:43:51.212Z,80.70
2022-11-25T03:46:18.767Z,96.80
2022-11-25T03:48:45.933Z,92.40
2022-11-25T03:51:13.035Z,88.90
2022-11-25T03:53:40.300Z,87.87
2022-11-25T03:56:07.599Z,84.03
2022-11-25T03:58:34.723Z,84.73
2022-11-25T04:01:02.318Z,90.30
2022-11-25T04:03:29.663Z,80.80
2022-11-25T04:05:56.766Z,83.33
2022-11-25T04:08:23.933Z,76.27
2022-11-25T04:10:51.196Z,78.60
2022-11-25T04:13:18.421Z,73.23
2022-11-25T04:15:46.941Z,77.93
2022-11-25T04:18:17.496Z,81.43
2022-11-25T04:20:44.662Z,82.40
2022-11-25T04:23:11.799Z,82.40
2022-11-25T04:25:39.001Z,84.23
2022-11-25T04:28:06.347Z,88.60
2022-11-25T04:30:33.567Z,75.30
2022-11-25T04:33:01.260Z,69.20
2022-11-25T04:35:28.404Z,72.90
2022-11-25T04:37:55.536Z,82.20
2022-11-25T04:40:22.709Z,90.87
2022-11-25T04:42:49.840Z,102.13
2022-11-25T04:45:24.748Z,94.60
2022-11-25T04:47:52.042Z,74.10
2022-11-25T04:50:20.016Z,79.63
2022-11-25T04:52:47.132Z,67.00
2022-11-25T04:55:14.317Z,50.60
2022-11-25T04:57:41.414Z,55.17
2022-11-25T05:00:09.393Z,52.53
2022-11-25T05:02:36.582Z,40.47
2022-11-25T05:05:03.922Z,44.53
2022-11-25T05:07:31.129Z,42.80
2022-11-25T05:09:58.432Z,41.27
2022-11-25T05:12:26.587Z,46.83
2022-11-25T05:14:53.753Z,53.03
2022-11-25T05:17:21.875Z,54.97
2022-11-25T05:19:49.437Z,54.00
2022-11-25T05:22:17.514Z,58.53
2022-11-25T05:24:44.658Z,57.20
2022-11-25T05:27:11.769Z,56.40
2022-11-25T05:29:38.873Z,58.10
2022-11-25T05:32:06.327Z,61.53
2022-11-25T05:34:33.702Z,51.80
2022-11-25T05:37:01.016Z,47.23
2022-11-25T05:39:28.167Z,37.20
2022-11-25T05:41:55.264Z,50.60
2022-11-25T05:44:34.150Z,109.43
2022-11-25T05:47:01.311Z,167.77
2022-11-25T05:49:28.406Z,131.97
2022-11-25T05:51:55.497Z,179.20
2022-11-25T05:54:22.629Z,143.80
2022-11-25T05:56:49.774Z,184.67
2022-11-25T05:59:16.926Z,183.47
2022-11-25T06:01:44.048Z,227.80
2022-11-25T06:04:11.613Z,266.40
2022-11-25T06:06:38.939Z,275.43
2022-11-25T06:09:06.066Z,269.40
2022-11-25T06:11:33.211Z,266.20
2022-11-25T06:14:00.360Z,256.67
2022-11-25T06:16:28.322Z,240.80
2022-11-25T06:18:55.473Z,239.20
2022-11-25T06:21:22.659Z,213.53
2022-11-25T06:23:49.812Z,154.33
2022-11-25T06:26:18.227Z,156.60
2022-11-25T06:28:45.417Z,107.67
2022-11-25T06:31:16.538Z,107.47
2022-11-25T06:33:43.738Z,98.70
2022-11-25T06:36:16.994Z,98.03
2022-11-25T06:38:44.824Z,122.50
2022-11-25T06:41:11.944Z,110.07
2022-11-25T06:43:39.162Z,139.57
2022-11-25T06:46:07.081Z,103.53
2022-11-25T06:48:34.335Z,158.40
2022-11-25T06:51:01.996Z,148.43
2022-11-25T06:53:29.154Z,143.10
2022-11-25T06:56:11.596Z,136.67
2022-11-25T06:58:39.045Z,120.17
2022-11-25T07:01:07.292Z,110.87
2022-11-25T07:03:34.994Z,89.00
2022-11-25T07:06:02.111Z,82.90
2022-11-25T07:08:33.726Z,84.97
2022-11-25T07:11:20.176Z,77.17
2022-11-25T07:13:47.360Z,95.60
2022-11-25T07:16:14.661Z,83.83
2022-11-25T07:18:41.874Z,94.83
2022-11-25T07:21:08.976Z,92.63
2022-11-25T07:23:36.249Z,95.93
2022-11-25T07:26:04.258Z,74.83
2022-11-25T07:28:31.390Z,83.30
2022-11-25T07:33:53.186Z,81.30
2022-11-25T07:36:20.446Z,84.83
2022-11-25T07:38:47.557Z,76.50
2022-11-25T07:41:15.460Z,98.40
2022-11-25T07:43:44.982Z,118.10
2022-11-25T07:46:26.446Z,111.33
2022-11-25T07:48:54.774Z,140.67
2022-11-25T07:51:22.901Z,147.87
2022-11-25T07:53:50.092Z,161.73
2022-11-25T07:56:17.570Z,168.83
2022-11-25T07:58:46.212Z,164.97
2022-11-25T08:01:13.757Z,166.90
2022-11-25T08:03:41.580Z,169.83
2022-11-25T08:06:09.448Z,164.20
2022-11-25T08:08:36.694Z,153.67
2022-11-25T08:11:07.879Z,163.50
2022-11-25T08:13:34.986Z,129.33
2022-11-25T08:16:02.231Z,131.43
2022-11-25T08:18:29.544Z,180.53
2022-11-25T08:21:04.721Z,184.77
2022-11-25T08:23:32.365Z,156.13
2022-11-25T08:26:00.130Z,143.07
2022-11-25T08:28:27.230Z,130.20
2022-11-25T08:30:54.431Z,133.50
2022-11-25T08:33:21.551Z,128.83
2022-11-25T08:35:54.341Z,136.60
2022-11-25T08:38:21.459Z,79.33
2022-11-25T08:40:48.562Z,62.50
2022-11-25T08:43:15.688Z,67.30
2022-11-25T08:45:42.791Z,50.97
2022-11-25T08:48:09.941Z,46.73
2022-11-25T08:50:37.093Z,51.73
2022-11-25T08:53:04.206Z,50.13
2022-11-25T08:55:32.658Z,44.57
2022-11-25T08:57:59.802Z,44.03
2022-11-25T09:00:26.915Z,40.07
2022-11-25T09:02:54.077Z,78.13
2022-11-25T09:05:21.249Z,76.83
2022-11-25T09:07:48.373Z,81.97
2022-11-25T09:10:17.640Z,86.23
2022-11-25T09:12:44.798Z,47.43
2022-11-25T09:15:12.209Z,37.27
2022-11-25T09:17:39.365Z,36.63
2022-11-25T09:20:06.842Z,29.17
2022-11-25T09:22:33.965Z,26.00
2022-11-25T09:25:01.112Z,32.38
2022-11-25T09:27:28.284Z,26.33
2022-11-25T09:29:55.425Z,25.95
2022-11-25T09:32:22.515Z,24.95
2022-11-25T09:34:49.635Z,18.48
2022-11-25T09:37:16.816Z,21.38
2022-11-25T09:39:43.923Z,21.00
2022-11-25T09:42:32.920Z,20.20
2022-11-25T09:45:30.507Z,16.35
2022-11-25T09:48:01.757Z,16.60
2022-11-25T09:50:31.685Z,11.88
2022-11-25T09:53:19.137Z,12.10
2022-11-25T09:55:46.676Z,14.50
2022-11-25T09:58:32.633Z,15.40
2022-11-25T10:00:59.811Z,20.17
2022-11-25T10:03:27.018Z,13.20
2022-11-25T10:06:07.979Z,12.65
2022-11-25T10:08:44.709Z,11.52
2022-11-25T10:11:11.826Z,10.88
2022-11-25T10:13:52.681Z,11.57
2022-11-25T10:16:36.581Z,12.52
2022-11-25T10:19:06.971Z,11.50
2022-11-25T10:21:34.092Z,10.75
2022-11-25T10:24:01.220Z,10.15
2022-11-25T10:26:30.717Z,9.93
2022-11-25T10:29:00.818Z,9.82
2022-11-25T10:31:29.982Z,17.33
2022-11-25T10:33:58.536Z,9.27
2022-11-25T10:36:33.228Z,9.30
2022-11-25T10:39:00.396Z,7.13
2022-11-25T10:41:28.286Z,8.18
2022-11-25T10:43:55.407Z,10.00
2022-11-25T10:47:13.069Z,10.75
2022-11-25T10:49:52.528Z,8.55
2022-11-25T10:52:21.235Z,8.70
2022-11-25T10:54:58.458Z,9.30
2022-11-25T10:57:27.880Z,11.82
2022-11-25T10:59:58.820Z,9.57
2022-11-25T11:02:37.958Z,8.73
2022-11-25T11:05:11.237Z,11.85
2022-11-25T11:07:39.232Z,9.20
2022-11-25T11:10:15.832Z,10.10
2022-11-25T11:12:52.095Z,12.25
2022-11-25T11:15:23.050Z,12.52
2022-11-25T11:17:50.195Z,14.18
2022-11-25T11:20:20.548Z,14.48
2022-11-25T11:22:52.882Z,19.75
2022-11-25T11:25:27.022Z,18.33
2022-11-25T11:27:54.301Z,22.63
2022-11-25T11:30:23.318Z,19.88
2022-11-25T11:32:56.719Z,17.02
2022-11-25T11:35:42.771Z,19.42
2022-11-25T11:38:20.318Z,17.67
2022-11-25T11:40:49.617Z,15.20
2022-11-25T11:43:23.053Z,16.60
2022-11-25T11:46:19.487Z,16.20
2022-11-25T11:48:53.432Z,16.45
2022-11-25T11:51:31.859Z,13.68
2022-11-25T11:53:58.972Z,16.13
2022-11-25T11:56:41.350Z,17.50
2022-11-25T11:59:27.269Z,17.88
2022-11-25T12:01:54.430Z,18.88
2022-11-25T12:04:40.592Z,23.90
2022-11-25T12:07:19.419Z,19.67
2022-11-25T12:09:51.089Z,22.73
2022-11-25T12:12:19.328Z,23.27
2022-11-25T12:14:47.758Z,24.08
2022-11-25T12:17:17.050Z,18.45
2022-11-25T12:19:45.312Z,19.25
2022-11-25T12:22:15.411Z,31.35
2022-11-25T12:25:02.808Z,20.83
2022-11-25T12:27:38.817Z,19.60
2022-11-25T12:30:07.265Z,19.05
2022-11-25T12:32:34.369Z,23.33
2022-11-25T12:35:10.455Z,32.42
2022-11-25T12:37:47.686Z,24.15
2022-11-25T12:40:15.869Z,23.70
2022-11-25T12:42:42.963Z,19.08
2022-11-25T12:45:15.423Z,20.38
2022-11-25T12:47:42.559Z,19.73
2022-11-25T12:50:14.156Z,22.60
2022-11-25T12:52:53.331Z,17.60
2022-11-25T12:55:21.596Z,18.15
2022-11-25T12:57:49.376Z,24.65
2022-11-25T13:00:42.504Z,20.90
2022-11-25T13:03:25.098Z,32.22
2022-11-25T13:05:58.183Z,23.38
2022-11-25T13:08:43.793Z,21.60
2022-11-25T13:11:23.317Z,18.83
2022-11-25T13:13:53.755Z,20.08
2022-11-25T13:16:21.510Z,21.33
2022-11-25T13:18:49.420Z,18.83
2022-11-25T13:21:17.041Z,18.95
2022-11-25T13:23:53.529Z,18.08
2022-11-25T13:26:29.798Z,16.98
2022-11-25T13:28:57.222Z,21.63
2022-11-25T13:31:25.254Z,18.90
2022-11-25T13:33:56.729Z,28.60
2022-11-25T13:36:24.384Z,25.27
2022-11-25T13:38:51.476Z,26.45
2022-11-25T13:41:22.117Z,24.92
2022-11-25T13:43:52.970Z,26.23
2022-11-25T13:46:38.640Z,22.55
2022-11-25T13:49:21.596Z,20.45
2022-11-25T13:51:52.151Z,20.50
2022-11-25T13:54:23.513Z,25.48
2022-11-25T13:57:09.527Z,21.98
2022-11-25T13:59:48.754Z,17.48
2022-11-25T14:02:28.251Z,18.67
2022-11-25T14:04:58.403Z,21.08
2022-11-25T14:07:36.180Z,19.23
2022-11-25T14:10:03.370Z,18.50
2022-11-25T14:12:42.936Z,26.08
2022-11-25T14:15:25.278Z,25.25
2022-11-25T14:17:55.234Z,25.27
2022-11-25T14:20:37.292Z,55.58
2022-11-25T14:23:23.018Z,41.70
2022-11-25T14:26:04.117Z,34.30
2022-11-25T14:28:36.952Z,30.13
2022-11-25T14:31:05.517Z,37.25
2022-11-25T14:33:58.994Z,29.30
2022-11-25T14:36:27.654Z,33.65
2022-11-25T14:38:55.660Z,49.42
2022-11-25T14:41:26.621Z,47.40
2022-11-25T14:43:55.021Z,47.00
2022-11-25T14:46:25.597Z,55.38
2022-11-25T14:48:59.546Z,55.97
2022-11-25T14:51:27.228Z,59.35
2022-11-25T14:53:54.469Z,112.82
2022-11-25T14:56:28.709Z,100.82
2022-11-25T14:58:56.158Z,87.35
2022-11-25T15:01:27.052Z,86.15
2022-11-25T15:04:17.537Z,67.03
2022-11-25T15:06:48.847Z,66.40
2022-11-25T15:09:35.042Z,64.45
2022-11-25T15:12:06.018Z,50.80
2022-11-25T15:14:34.293Z,48.75
2022-11-25T15:17:01.507Z,46.85
2022-11-25T15:19:33.387Z,40.25
2022-11-25T15:22:22.337Z,41.67
2022-11-25T15:24:54.714Z,46.03
2022-11-25T15:27:25.248Z,47.85
2022-11-25T15:29:52.427Z,54.53
2022-11-25T15:32:29.621Z,66.82
2022-11-25T15:34:57.070Z,77.18
2022-11-25T15:37:24.244Z,101.60
2022-11-25T15:39:51.853Z,97.07
2022-11-25T15:42:23.197Z,74.85
2022-11-25T15:44:54.098Z,76.53
2022-11-25T15:47:24.324Z,84.28
2022-11-25T15:49:54.261Z,101.03
2022-11-25T15:52:21.353Z,114.35
2022-11-25T15:54:51.997Z,110.43
2022-11-25T15:57:19.139Z,83.88
2022-11-25T15:59:46.241Z,76.53
2022-11-25T16:02:32.186Z,75.07
2022-11-25T16:05:14.521Z,61.70
2022-11-25T16:07:50.628Z,81.57
2022-11-25T16:10:18.034Z,87.32
2022-11-25T16:12:45.139Z,75.17
2022-11-25T16:15:18.224Z,79.07
2022-11-25T16:17:45.365Z,68.93
2022-11-25T16:20:27.500Z,97.63
2022-11-25T16:22:54.618Z,91.38
2022-11-25T16:25:21.749Z,251.50
2022-11-25T16:27:48.876Z,186.75
2022-11-25T16:30:19.533Z,133.45
2022-11-25T16:32:46.646Z,119.27
2022-11-25T16:35:15.231Z,114.60
2022-11-25T16:37:47.153Z,167.43
2022-11-25T16:40:16.768Z,131.50
2022-11-25T16:42:46.647Z,108.27
2022-11-25T16:45:18.789Z,149.15
2022-11-25T16:47:45.885Z,160.53
2022-11-25T16:50:16.193Z,207.05
2022-11-25T16:52:43.356Z,189.30
2022-11-25T16:55:10.462Z,118.27
2022-11-25T16:57:37.697Z,82.10
2022-11-25T17:00:08.524Z,76.25
2022-11-25T17:02:35.935Z,78.72
2022-11-25T17:05:32.350Z,94.82
2022-11-25T17:07:59.462Z,114.17
2022-11-25T17:10:26.718Z,120.27
2022-11-25T17:12:53.923Z,120.78
2022-11-25T17:15:22.036Z,131.70
2022-11-25T17:17:49.228Z,178.15
2022-11-25T17:20:17.132Z,211.37
2022-11-25T17:22:44.212Z,263.83
2022-11-25T17:25:14.304Z,339.57
2022-11-25T17:27:41.439Z,341.10
2022-11-25T17:30:09.266Z,259.40
2022-11-25T17:32:36.348Z,194.90
2022-11-25T17:35:03.517Z,92.60
2022-11-25T17:37:31.732Z,97.27
2022-11-25T17:39:59.042Z,124.80
2022-11-25T17:42:30.542Z,259.47
2022-11-25T17:44:57.746Z,234.23
2022-11-25T17:47:24.885Z,282.80
2022-11-25T17:49:52.134Z,349.17
2022-11-25T17:52:19.314Z,269.87
2022-11-25T17:54:46.411Z,264.73
2022-11-25T17:57:15.162Z,193.60
2022-11-25T17:59:42.249Z,203.00
2022-11-25T18:02:16.775Z,178.33
2022-11-25T18:04:43.928Z,162.77
2022-11-25T18:07:11.195Z,151.90
2022-11-25T18:09:38.359Z,132.33
2022-11-25T18:12:08.157Z,128.57
2022-11-25T18:14:36.838Z,109.50
2022-11-25T18:17:04.968Z,110.73
2022-11-25T18:19:32.877Z,170.67
2022-11-25T18:22:13.677Z,124.43
2022-11-25T18:24:41.257Z,93.43
2022-11-25T18:27:10.030Z,75.50
2022-11-25T18:29:37.188Z,69.50
2022-11-25T18:32:05.642Z,66.63
2022-11-25T18:34:32.761Z,71.20
2022-11-25T18:37:00.972Z,68.37
2022-11-25T18:39:28.080Z,64.23
2022-11-25T18:41:58.208Z,71.32
2022-11-25T18:44:37.402Z,69.90
2022-11-25T18:47:05.516Z,78.53
2022-11-25T18:49:32.655Z,72.60
2022-11-25T18:51:59.755Z,77.67
2022-11-25T18:54:26.829Z,84.60
2022-11-25T18:56:53.937Z,121.53
2022-11-25T18:59:26.265Z,89.53
2022-11-25T19:01:53.437Z,81.23
2022-11-25T19:04:20.583Z,98.43
2022-11-25T19:06:47.676Z,69.97
2022-11-25T19:09:14.794Z,69.53
2022-11-25T19:11:48.854Z,66.07
2022-11-25T19:14:29.044Z,73.40
2022-11-25T19:16:56.475Z,71.88
2022-11-25T19:19:23.686Z,82.83
2022-11-25T19:21:50.762Z,81.07
2022-11-25T19:24:18.075Z,121.00
2022-11-25T19:26:48.936Z,148.43
2022-11-25T19:29:20.041Z,123.17
2022-11-25T19:31:47.424Z,153.13
2022-11-25T19:34:23.824Z,117.90
2022-11-25T19:36:51.972Z,114.70
2022-11-25T19:39:19.142Z,127.13
2022-11-25T19:41:46.307Z,125.80
2022-11-25T19:44:14.367Z,119.47
2022-11-25T19:47:13.027Z,97.70
2022-11-25T19:49:30.939Z,92.65
2022-11-25T19:51:58.005Z,88.45
2022-11-25T19:54:25.086Z,96.63
2022-11-25T19:56:52.249Z,98.37
2022-11-25T19:59:19.320Z,93.13
2022-11-25T20:01:46.890Z,101.00
2022-11-25T20:04:17.259Z,99.03
2022-11-25T20:06:44.349Z,102.33
2022-11-25T20:09:12.263Z,101.37
2022-11-25T20:11:39.441Z,118.38
2022-11-25T20:14:06.529Z,124.47
2022-11-25T20:16:35.417Z,100.45
2022-11-25T20:19:02.565Z,110.27
2022-11-25T20:21:33.395Z,101.40
2022-11-25T20:24:00.580Z,118.63
2022-11-25T20:26:29.155Z,126.30
2022-11-25T20:28:56.316Z,136.23
2022-11-25T20:31:27.374Z,150.23
2022-11-25T20:33:57.256Z,145.50
2022-11-25T20:36:25.441Z,117.27
2022-11-25T20:38:54.476Z,125.53
2022-11-25T20:41:27.276Z,128.20
2022-11-25T20:43:54.953Z,135.23
2022-11-25T20:46:23.166Z,164.90
2022-11-25T20:48:52.311Z,148.23
2022-11-25T20:51:20.813Z,140.90
2022-11-25T20:53:48.867Z,125.73
2022-11-25T20:56:19.616Z,137.67
2022-11-25T20:58:46.795Z,133.97
2022-11-25T21:01:18.958Z,135.77
2022-11-25T21:03:46.206Z,139.50
2022-11-25T21:06:17.963Z,191.07
2022-11-25T21:08:47.569Z,203.13
2022-11-25T21:11:14.661Z,255.60
2022-11-25T21:13:41.742Z,208.93
2022-11-25T21:16:08.888Z,226.20
2022-11-25T21:18:35.962Z,175.10
2022-11-25T21:21:03.073Z,153.10
2022-11-25T21:23:32.642Z,215.10
2022-11-25T21:26:26.187Z,175.83
2022-11-25T21:28:53.514Z,150.17
2022-11-25T21:31:21.644Z,157.20
2022-11-25T21:33:48.939Z,153.17
2022-11-25T21:36:19.581Z,156.97
2022-11-25T21:38:46.942Z,159.73
2022-11-25T21:41:14.047Z,177.30
2022-11-25T21:43:42.600Z,153.20
2022-11-25T21:46:12.732Z,140.60
2022-11-25T21:48:39.893Z,166.37
2022-11-25T21:51:07.098Z,151.10
2022-11-25T21:53:37.321Z,135.03
2022-11-25T21:56:04.960Z,119.90
2022-11-25T21:58:32.308Z,129.57
2022-11-25T22:01:00.225Z,135.30
2022-11-25T22:03:29.107Z,138.07
2022-11-25T22:05:56.309Z,150.43
2022-11-25T22:08:23.896Z,138.13
2022-11-25T22:10:51.431Z,143.90
2022-11-25T22:13:26.376Z,140.40
2022-11-25T22:15:56.486Z,132.57
2022-11-25T22:18:30.645Z,131.73
2022-11-25T22:20:57.886Z,144.17
2022-11-25T22:23:25.197Z,137.60
2022-11-25T22:25:52.447Z,132.97
2022-11-25T22:28:20.946Z,121.83
2022-11-25T22:30:51.744Z,116.40
2022-11-25T22:33:19.011Z,79.80
2022-11-25T22:35:46.172Z,124.50
2022-11-25T22:38:13.940Z,122.17
2022-11-25T22:40:41.994Z,113.70
2022-11-25T22:43:09.857Z,116.13
2022-11-25T22:45:36.997Z,109.37
2022-11-25T22:48:04.620Z,85.03
2022-11-25T22:50:32.003Z,79.23
2022-11-25T22:52:59.152Z,59.10
2022-11-25T22:55:29.940Z,62.87
2022-11-25T22:57:57.723Z,89.47
2022-11-25T23:00:26.025Z,73.67
2022-11-25T23:02:53.654Z,85.87
2022-11-25T23:05:27.622Z,73.77
2022-11-25T23:07:57.963Z,89.47
2022-11-25T23:10:25.966Z,184.97
2022-11-25T23:12:53.125Z,162.13
2022-11-25T23:15:21.249Z,160.87
2022-11-25T23:17:51.483Z,171.17
2022-11-25T23:20:21.042Z,150.37
2022-11-25T23:22:48.198Z,75.50
2022-11-25T23:25:17.005Z,46.33
2022-11-25T23:27:44.132Z,43.93
2022-11-25T23:30:21.331Z,42.50
2022-11-25T23:32:49.465Z,46.60
2022-11-25T23:35:17.297Z,48.77
2022-11-25T23:37:44.536Z,45.60
2022-11-25T23:40:15.321Z,37.77
2022-11-25T23:42:42.407Z,35.90
2022-11-25T23:45:10.150Z,29.40
2022-11-25T23:47:37.234Z,27.87
2022-11-25T23:50:04.343Z,26.47
2022-11-25T23:52:31.484Z,25.93
2022-11-25T23:54:58.558Z,25.87
2022-11-25T23:57:27.189Z,31.40
2022-11-25T23:59:54.298Z,29.83
